Terminal Aerodrome Forecast
Issued by NWS

Home | Current Version | Previous Version | Text Only | Print | Product List | Glossary Off
Versions: 1 2 3 4 5 6 7 8 9 10 11 12 13 14 15 16 17 18

349
FTUS43 KMPX 031352 AAA
TAFRNH
TAF AMD
KRNH 031352Z 0314/0412 33012G18KT 6SM -SN BLSN SCT018 OVC040
      TEMPO 0314/0315 2SM -SN BLSN BKN018
     FM032000 31011KT P6SM SCT040 BKN250
     FM040200 28005KT P6SM BKN150
     FM040800 21004KT P6SM BKN100=

USA.gov is the U.S. government's official web portal to all federal, state and local government web resources and services.